createdAt,value
2018-12-26T00:01:59.653Z,74.16
2018-12-26T00:04:27.129Z,73.04
2018-12-26T00:06:54.671Z,72.79
2018-12-26T00:09:22.070Z,71.50
2018-12-26T00:11:49.522Z,71.61
2018-12-26T00:14:16.994Z,71.70
2018-12-26T00:16:44.434Z,72.58
2018-12-26T00:19:11.891Z,72.80
2018-12-26T00:21:39.372Z,71.83
2018-12-26T00:24:06.885Z,72.28
2018-12-26T00:26:34.350Z,73.02
2018-12-26T00:29:01.817Z,72.48
2018-12-26T00:31:29.244Z,72.65
2018-12-26T00:33:56.681Z,73.45
2018-12-26T00:36:24.150Z,74.57
2018-12-26T00:38:51.601Z,74.45
2018-12-26T00:41:19.056Z,73.47
2018-12-26T00:43:46.541Z,75.79
2018-12-26T00:46:13.981Z,74.70
2018-12-26T00:48:41.465Z,74.70
2018-12-26T00:51:08.973Z,74.70
2018-12-26T00:53:36.470Z,75.27
2018-12-26T00:56:10.407Z,74.13
2018-12-26T00:58:31.419Z,75.04
2018-12-26T01:00:58.848Z,75.99
2018-12-26T01:03:26.278Z,74.75
2018-12-26T01:05:53.754Z,76.47
2018-12-26T01:08:21.183Z,76.49
2018-12-26T01:10:48.628Z,77.56
2018-12-26T01:13:16.130Z,75.88
2018-12-26T01:15:43.567Z,76.57
2018-12-26T01:18:10.999Z,75.59
2018-12-26T01:20:38.472Z,75.86
2018-12-26T01:23:05.959Z,75.72
2018-12-26T01:25:33.474Z,76.76
2018-12-26T01:28:00.929Z,77.07
2018-12-26T01:30:28.483Z,79.05
2018-12-26T01:32:55.931Z,78.03
2018-12-26T01:35:23.416Z,77.94
2018-12-26T01:37:50.913Z,78.83
2018-12-26T01:40:18.366Z,76.67
2018-12-26T01:42:45.886Z,77.14
2018-12-26T01:45:13.314Z,77.52
2018-12-26T01:47:40.817Z,78.25
2018-12-26T01:50:08.270Z,77.65
2018-12-26T01:52:35.733Z,77.69
2018-12-26T01:55:03.240Z,78.31
2018-12-26T01:57:30.710Z,77.93
2018-12-26T01:59:58.185Z,79.06
2018-12-26T02:02:25.634Z,77.75
2018-12-26T02:04:53.190Z,77.72
2018-12-26T02:07:20.801Z,77.11
2018-12-26T02:09:48.445Z,76.91
2018-12-26T02:12:15.963Z,75.32
2018-12-26T02:14:43.540Z,75.76
2018-12-26T02:17:11.002Z,79.72
2018-12-26T02:19:38.677Z,79.68
2018-12-26T02:22:06.275Z,77.91
2018-12-26T02:24:33.991Z,78.67
2018-12-26T02:27:01.433Z,77.90
2018-12-26T02:29:28.881Z,77.39
2018-12-26T02:31:56.524Z,77.25
2018-12-26T02:34:23.979Z,79.12
2018-12-26T02:36:51.422Z,78.72
2018-12-26T02:39:18.883Z,80.24
2018-12-26T02:41:46.338Z,80.57
2018-12-26T02:44:13.807Z,80.39
2018-12-26T02:46:41.271Z,80.35
2018-12-26T02:49:08.735Z,80.50
2018-12-26T02:51:36.220Z,81.07
2018-12-26T02:54:03.667Z,80.51
2018-12-26T02:56:31.141Z,80.84
2018-12-26T02:58:58.602Z,82.05
2018-12-26T03:01:26.051Z,82.16
2018-12-26T03:03:53.565Z,82.08
2018-12-26T03:06:21.065Z,81.24
2018-12-26T03:08:48.524Z,80.78
2018-12-26T03:11:15.989Z,81.80
2018-12-26T03:13:43.478Z,80.59
2018-12-26T03:16:10.939Z,81.87
2018-12-26T03:18:38.374Z,81.88
2018-12-26T03:21:05.847Z,81.21
2018-12-26T03:23:33.307Z,80.34
2018-12-26T03:26:00.771Z,81.55
2018-12-26T03:28:28.234Z,81.26
2018-12-26T03:30:56.683Z,81.12
2018-12-26T03:33:24.208Z,80.35
2018-12-26T03:35:51.666Z,78.72
2018-12-26T03:38:19.129Z,81.02
2018-12-26T03:40:46.579Z,81.23
2018-12-26T03:43:14.045Z,79.89
2018-12-26T03:45:41.505Z,80.02
2018-12-26T03:48:08.949Z,80.74
2018-12-26T03:50:36.393Z,81.57
2018-12-26T03:53:03.874Z,83.01
2018-12-26T03:55:31.319Z,82.58
2018-12-26T03:57:58.820Z,81.72
2018-12-26T04:00:26.273Z,81.32
2018-12-26T04:02:53.740Z,81.11
2018-12-26T04:05:21.184Z,81.92
2018-12-26T04:07:48.690Z,82.75
2018-12-26T04:10:16.142Z,82.21
2018-12-26T04:12:43.564Z,82.36
2018-12-26T04:15:11.139Z,82.02
2018-12-26T04:17:38.566Z,81.76
2018-12-26T04:20:06.026Z,81.81
2018-12-26T04:22:33.484Z,81.05
2018-12-26T04:25:00.933Z,81.37
2018-12-26T04:27:28.767Z,81.64
2018-12-26T04:29:56.227Z,81.65
2018-12-26T04:32:23.662Z,81.77
2018-12-26T04:34:51.117Z,81.30
2018-12-26T04:37:18.548Z,82.25
2018-12-26T04:39:46.009Z,81.60
2018-12-26T04:42:13.472Z,81.73
2018-12-26T04:44:40.924Z,81.64
2018-12-26T04:47:08.360Z,81.79
2018-12-26T04:49:35.867Z,82.00
2018-12-26T04:52:03.376Z,82.10
2018-12-26T04:54:30.819Z,83.23
2018-12-26T04:56:58.286Z,83.05
2018-12-26T04:59:25.868Z,82.62
2018-12-26T05:01:53.332Z,81.73
2018-12-26T05:04:20.768Z,81.20
2018-12-26T05:06:48.190Z,82.16
2018-12-26T05:09:15.628Z,82.84
2018-12-26T05:11:43.157Z,82.43
2018-12-26T05:14:10.616Z,81.98
2018-12-26T05:16:38.059Z,82.63
2018-12-26T05:19:05.534Z,82.20
2018-12-26T05:21:33.010Z,83.61
2018-12-26T05:24:00.435Z,83.32
2018-12-26T05:26:27.892Z,83.07
2018-12-26T05:28:55.314Z,83.63
2018-12-26T05:31:22.858Z,83.61
2018-12-26T05:33:50.249Z,83.14
2018-12-26T05:36:17.706Z,83.02
2018-12-26T05:38:45.155Z,83.59
2018-12-26T05:41:12.597Z,83.04
2018-12-26T05:43:40.036Z,83.62
2018-12-26T05:46:07.498Z,83.14
2018-12-26T05:48:34.953Z,82.94
2018-12-26T05:51:02.462Z,82.45
2018-12-26T05:53:29.944Z,82.38
2018-12-26T05:55:57.381Z,82.70
2018-12-26T05:58:24.832Z,82.07
2018-12-26T06:00:52.287Z,82.04
2018-12-26T06:03:19.742Z,82.29
2018-12-26T06:05:47.170Z,82.65
2018-12-26T06:08:14.639Z,82.37
2018-12-26T06:10:42.059Z,82.56
2018-12-26T06:13:09.493Z,82.28
2018-12-26T06:15:36.981Z,82.54
2018-12-26T06:18:04.438Z,82.71
2018-12-26T06:20:31.910Z,82.64
2018-12-26T06:22:59.353Z,82.53
2018-12-26T06:25:26.836Z,82.67
2018-12-26T06:27:54.277Z,82.57
2018-12-26T06:30:21.754Z,82.46
2018-12-26T06:32:49.191Z,83.35
2018-12-26T06:35:16.660Z,83.03
2018-12-26T06:37:44.167Z,83.64
2018-12-26T06:40:11.665Z,83.22
2018-12-26T06:42:39.140Z,82.62
2018-12-26T06:45:06.600Z,82.51
2018-12-26T06:47:34.063Z,82.12
2018-12-26T06:50:01.528Z,81.46
2018-12-26T06:52:29.016Z,81.67
2018-12-26T06:54:57.497Z,81.04
2018-12-26T06:57:25.142Z,80.61
2018-12-26T06:59:52.583Z,79.80
2018-12-26T07:02:20.074Z,79.73
2018-12-26T07:04:47.552Z,80.24
2018-12-26T07:07:15.067Z,80.62
2018-12-26T07:09:42.518Z,81.25
2018-12-26T07:12:09.969Z,81.47
2018-12-26T07:14:37.445Z,82.57
2018-12-26T07:17:04.876Z,82.44
2018-12-26T07:19:32.337Z,82.68
2018-12-26T07:21:59.793Z,82.46
2018-12-26T07:24:27.281Z,82.12
2018-12-26T07:26:54.721Z,82.18
2018-12-26T07:29:23.135Z,82.05
2018-12-26T07:31:50.663Z,81.39
2018-12-26T07:34:18.110Z,82.09
2018-12-26T07:36:45.547Z,82.10
2018-12-26T07:39:13.025Z,82.01
2018-12-26T07:41:40.472Z,81.67
2018-12-26T07:44:07.936Z,81.68
2018-12-26T07:48:56.291Z,82.34
2018-12-26T07:51:23.747Z,81.76
2018-12-26T07:53:51.218Z,81.57
2018-12-26T07:56:18.666Z,81.39
2018-12-26T07:58:46.151Z,81.20
2018-12-26T08:01:13.640Z,80.97
2018-12-26T08:03:42.157Z,81.67
2018-12-26T08:06:09.633Z,81.57
2018-12-26T08:08:37.110Z,82.27
2018-12-26T08:11:04.865Z,81.44
2018-12-26T08:13:32.305Z,82.12
2018-12-26T08:16:00.577Z,81.96
2018-12-26T08:18:28.087Z,81.51
2018-12-26T08:20:56.791Z,81.16
2018-12-26T08:23:24.299Z,81.79
2018-12-26T08:25:52.081Z,81.47
2018-12-26T08:28:26.593Z,81.71
2018-12-26T08:30:47.093Z,80.78
2018-12-26T08:33:14.591Z,80.59
2018-12-26T08:35:42.034Z,80.63
2018-12-26T08:38:09.471Z,81.27
2018-12-26T08:40:37.079Z,80.85
2018-12-26T08:43:04.536Z,81.06
2018-12-26T08:45:32.007Z,80.98
2018-12-26T08:47:59.486Z,81.40
2018-12-26T08:50:26.960Z,81.03
2018-12-26T08:52:54.422Z,80.43
2018-12-26T08:55:21.890Z,80.81
2018-12-26T08:57:49.500Z,80.41
2018-12-26T09:00:16.990Z,80.75
2018-12-26T09:02:44.439Z,80.54
2018-12-26T09:05:11.867Z,80.65
2018-12-26T09:07:39.331Z,80.13
2018-12-26T09:10:06.784Z,80.52
2018-12-26T09:12:34.339Z,80.60
2018-12-26T09:15:01.815Z,80.97
2018-12-26T09:17:29.390Z,81.45
2018-12-26T09:19:56.893Z,81.29
2018-12-26T09:22:24.386Z,80.19
2018-12-26T09:24:51.849Z,80.60
2018-12-26T09:27:19.381Z,80.48
2018-12-26T09:29:46.909Z,80.32
2018-12-26T09:32:14.363Z,80.43
2018-12-26T09:34:41.823Z,80.12
2018-12-26T09:37:09.268Z,79.83
2018-12-26T09:39:36.717Z,79.82
2018-12-26T09:42:04.141Z,79.72
2018-12-26T09:44:31.583Z,79.53
2018-12-26T09:46:59.019Z,79.31
2018-12-26T09:49:26.475Z,78.97
2018-12-26T09:51:53.907Z,79.01
2018-12-26T09:54:21.360Z,78.47
2018-12-26T09:56:48.839Z,78.85
2018-12-26T09:59:16.314Z,79.03
2018-12-26T10:01:43.730Z,78.57
2018-12-26T10:04:11.181Z,79.29
2018-12-26T10:06:38.626Z,78.93
2018-12-26T10:09:06.089Z,79.42
2018-12-26T10:11:33.559Z,78.89
2018-12-26T10:14:00.986Z,78.90
2018-12-26T10:16:28.455Z,78.35
2018-12-26T10:18:55.875Z,78.31
2018-12-26T10:21:23.369Z,78.71
2018-12-26T10:23:50.843Z,78.41
2018-12-26T10:26:18.330Z,78.56
2018-12-26T10:28:45.762Z,78.43
2018-12-26T10:31:13.199Z,78.46
2018-12-26T10:33:40.664Z,78.16
2018-12-26T10:36:08.149Z,78.34
2018-12-26T10:38:35.572Z,78.21
2018-12-26T10:41:04.301Z,78.81
2018-12-26T10:43:31.927Z,78.00
2018-12-26T10:45:59.458Z,78.52
2018-12-26T10:48:26.929Z,78.00
2018-12-26T10:50:54.382Z,77.59
2018-12-26T10:53:21.944Z,77.45
2018-12-26T10:55:49.380Z,76.89
2018-12-26T10:58:16.822Z,77.41
2018-12-26T11:00:44.313Z,77.13
2018-12-26T11:03:11.767Z,76.77
2018-12-26T11:05:41.312Z,76.76
2018-12-26T11:08:08.780Z,77.30
2018-12-26T11:10:36.226Z,76.39
2018-12-26T11:13:03.722Z,76.70
2018-12-26T11:15:31.156Z,76.70
2018-12-26T11:17:58.619Z,76.84
2018-12-26T11:20:26.073Z,76.00
2018-12-26T11:22:53.521Z,76.05
2018-12-26T11:25:20.972Z,76.58
2018-12-26T11:27:48.438Z,76.04
2018-12-26T11:30:15.917Z,75.69
2018-12-26T11:32:43.345Z,75.89
2018-12-26T11:35:10.806Z,75.40
2018-12-26T11:37:38.217Z,75.40
2018-12-26T11:40:06.418Z,74.78
2018-12-26T11:42:33.872Z,75.29
2018-12-26T11:45:01.319Z,75.08
2018-12-26T11:47:28.797Z,74.67
2018-12-26T11:49:56.246Z,74.98
2018-12-26T11:52:23.699Z,75.07
2018-12-26T11:54:51.120Z,75.13
2018-12-26T11:57:18.604Z,74.35
2018-12-26T11:59:46.015Z,74.06
2018-12-26T12:02:20.557Z,74.26
2018-12-26T12:04:40.949Z,73.92
2018-12-26T12:07:08.413Z,73.80
2018-12-26T12:09:35.894Z,74.09
2018-12-26T12:12:03.324Z,73.57
2018-12-26T12:14:30.782Z,73.79
2018-12-26T12:16:58.245Z,73.85
2018-12-26T12:19:25.687Z,73.32
2018-12-26T12:21:53.146Z,73.67
2018-12-26T12:24:20.565Z,74.01
2018-12-26T12:26:48.007Z,73.42
2018-12-26T12:29:15.451Z,73.47
2018-12-26T12:31:43.037Z,73.72
2018-12-26T12:34:10.361Z,73.64
2018-12-26T12:36:37.799Z,73.74
2018-12-26T12:39:05.234Z,73.50
2018-12-26T12:41:32.662Z,73.25
2018-12-26T12:44:00.135Z,72.89
2018-12-26T12:46:27.624Z,72.80
2018-12-26T12:48:55.099Z,72.72
2018-12-26T12:51:22.510Z,72.89
2018-12-26T12:53:49.945Z,72.05
2018-12-26T12:56:17.388Z,71.77
2018-12-26T12:58:44.799Z,71.75
2018-12-26T13:01:12.243Z,72.41
2018-12-26T13:03:46.487Z,71.80
2018-12-26T13:06:07.164Z,71.94
2018-12-26T13:08:34.595Z,71.22
2018-12-26T13:11:02.059Z,72.09
2018-12-26T13:13:29.467Z,71.70
2018-12-26T13:15:56.977Z,71.59
2018-12-26T13:18:24.399Z,71.50
2018-12-26T13:20:51.903Z,71.66
2018-12-26T13:23:19.372Z,71.78
2018-12-26T13:25:46.862Z,70.99
2018-12-26T13:28:14.332Z,71.61
2018-12-26T13:30:41.780Z,70.67
2018-12-26T13:33:09.262Z,70.84
2018-12-26T13:35:36.733Z,71.20
2018-12-26T13:38:04.165Z,69.97
2018-12-26T13:40:31.586Z,69.77
2018-12-26T13:42:59.024Z,70.09
2018-12-26T13:45:26.453Z,70.37
2018-12-26T13:47:53.903Z,69.88
2018-12-26T13:50:21.353Z,69.51
2018-12-26T13:52:48.807Z,69.84
2018-12-26T13:55:16.241Z,69.20
2018-12-26T13:57:43.688Z,69.86
2018-12-26T14:00:11.156Z,69.81
2018-12-26T14:02:38.580Z,69.15
2018-12-26T14:05:06.045Z,69.12
2018-12-26T14:07:33.480Z,69.29
2018-12-26T14:10:00.929Z,69.84
2018-12-26T14:12:28.334Z,69.48
2018-12-26T14:14:55.859Z,68.80
2018-12-26T14:17:23.228Z,69.37
2018-12-26T14:19:50.650Z,68.74
2018-12-26T14:22:18.117Z,69.23
2018-12-26T14:24:45.567Z,69.04
2018-12-26T14:27:13.028Z,68.97
2018-12-26T14:29:42.557Z,69.73
2018-12-26T14:32:09.119Z,69.11
2018-12-26T14:34:36.569Z,68.67
2018-12-26T14:37:04.054Z,68.48
2018-12-26T14:39:31.493Z,68.65
2018-12-26T14:41:58.954Z,68.75
2018-12-26T14:44:26.375Z,70.20
2018-12-26T14:46:53.848Z,67.41
2018-12-26T14:49:21.278Z,68.00
2018-12-26T14:51:48.786Z,68.43
2018-12-26T14:54:16.471Z,68.76
2018-12-26T14:56:48.713Z,67.96
2018-12-26T14:59:16.126Z,68.25
2018-12-26T15:01:43.579Z,68.86
2018-12-26T15:04:11.017Z,68.40
2018-12-26T15:06:38.469Z,68.55
2018-12-26T15:09:05.999Z,68.64
2018-12-26T15:11:33.418Z,68.39
2018-12-26T15:14:00.865Z,68.01
2018-12-26T15:16:28.336Z,68.67
2018-12-26T15:18:55.809Z,70.46
2018-12-26T15:21:23.275Z,69.74
2018-12-26T15:23:50.772Z,70.94
2018-12-26T15:26:18.217Z,69.90
2018-12-26T15:28:45.712Z,69.16
2018-12-26T15:31:13.152Z,68.76
2018-12-26T15:33:40.569Z,68.82
2018-12-26T15:36:08.003Z,69.46
2018-12-26T15:38:35.414Z,68.47
2018-12-26T15:41:02.859Z,68.89
2018-12-26T15:43:30.306Z,67.85
2018-12-26T15:45:57.781Z,68.38
2018-12-26T15:48:25.288Z,68.83
2018-12-26T15:50:52.835Z,69.13
2018-12-26T15:53:20.303Z,68.81
2018-12-26T15:55:48.022Z,68.93
2018-12-26T15:58:15.481Z,68.99
2018-12-26T16:00:42.922Z,69.15
2018-12-26T16:03:10.459Z,68.99
2018-12-26T16:05:37.888Z,69.65
2018-12-26T16:08:05.357Z,69.23
2018-12-26T16:10:32.791Z,68.76
2018-12-26T16:13:00.248Z,69.25
2018-12-26T16:15:27.695Z,69.28
2018-12-26T16:17:55.141Z,69.48
2018-12-26T16:20:22.582Z,69.41
2018-12-26T16:22:50.014Z,69.86
2018-12-26T16:25:18.941Z,70.28
2018-12-26T16:27:46.418Z,70.14
2018-12-26T16:30:13.886Z,69.81
2018-12-26T16:32:41.355Z,69.63
2018-12-26T16:35:08.854Z,69.48
2018-12-26T16:37:36.312Z,69.85
2018-12-26T16:40:03.773Z,69.54
2018-12-26T16:42:31.227Z,69.71
2018-12-26T16:44:58.666Z,69.92
2018-12-26T16:47:26.094Z,69.47
2018-12-26T16:49:53.534Z,69.38
2018-12-26T16:52:21.737Z,71.00
2018-12-26T16:54:49.171Z,70.71
2018-12-26T16:57:16.598Z,70.97
2018-12-26T16:59:44.055Z,71.93
2018-12-26T17:02:11.527Z,70.56
2018-12-26T17:04:38.981Z,70.66
2018-12-26T17:07:06.468Z,70.91
2018-12-26T17:09:35.222Z,69.77
2018-12-26T17:12:02.869Z,69.31
2018-12-26T17:14:30.281Z,68.89
2018-12-26T17:16:57.719Z,68.91
2018-12-26T17:19:25.209Z,69.76
2018-12-26T17:21:52.646Z,69.98
2018-12-26T17:24:20.151Z,69.94
2018-12-26T17:26:47.572Z,70.32
2018-12-26T17:29:15.027Z,70.59
2018-12-26T17:31:42.490Z,70.45
2018-12-26T17:34:09.948Z,70.62
2018-12-26T17:36:37.433Z,70.19
2018-12-26T17:39:04.885Z,71.33
2018-12-26T17:41:32.313Z,71.32
2018-12-26T17:44:00.724Z,70.99
2018-12-26T17:46:28.229Z,71.11
2018-12-26T17:48:55.699Z,70.20
2018-12-26T17:51:23.158Z,71.52
2018-12-26T17:53:53.302Z,71.20
2018-12-26T17:56:24.510Z,71.06
2018-12-26T17:58:53.418Z,71.38
2018-12-26T18:01:31.137Z,71.43
2018-12-26T18:03:58.566Z,71.17
2018-12-26T18:06:26.048Z,70.62
2018-12-26T18:08:53.717Z,70.55
2018-12-26T18:11:21.199Z,70.48
2018-12-26T18:13:48.642Z,70.71
2018-12-26T18:16:17.933Z,69.89
2018-12-26T18:18:43.628Z,69.89
2018-12-26T18:21:11.109Z,69.33
2018-12-26T18:23:38.590Z,68.57
2018-12-26T18:26:06.115Z,68.82
2018-12-26T18:28:33.606Z,69.14
2018-12-26T18:31:01.807Z,68.86
2018-12-26T18:33:29.268Z,69.17
2018-12-26T18:35:56.750Z,69.53
2018-12-26T18:38:24.191Z,68.77
2018-12-26T18:40:51.658Z,68.38
2018-12-26T18:43:19.159Z,68.29
2018-12-26T18:45:46.604Z,68.00
2018-12-26T18:48:14.073Z,67.72
2018-12-26T18:50:41.517Z,67.44
2018-12-26T18:53:12.069Z,69.12
2018-12-26T18:55:39.490Z,68.55
2018-12-26T18:58:06.957Z,68.23
2018-12-26T19:00:34.410Z,68.23
2018-12-26T19:03:01.898Z,67.54
2018-12-26T19:05:29.468Z,67.91
2018-12-26T19:07:56.895Z,67.91
2018-12-26T19:10:24.349Z,67.72
2018-12-26T19:12:51.812Z,67.34
2018-12-26T19:15:19.246Z,67.25
2018-12-26T19:17:46.732Z,66.84
2018-12-26T19:20:14.162Z,66.70
2018-12-26T19:22:41.608Z,67.12
2018-12-26T19:25:10.123Z,68.06
2018-12-26T19:27:37.671Z,67.52
2018-12-26T19:30:05.142Z,68.22
2018-12-26T19:32:32.819Z,67.84
2018-12-26T19:35:00.488Z,67.84
2018-12-26T19:37:27.973Z,67.63
2018-12-26T19:39:55.459Z,67.50
2018-12-26T19:42:23.126Z,67.40
2018-12-26T19:44:51.024Z,66.92
2018-12-26T19:47:18.604Z,67.16
2018-12-26T19:49:46.783Z,66.95
2018-12-26T19:52:14.351Z,67.40
2018-12-26T19:54:42.173Z,66.97
2018-12-26T19:57:09.613Z,67.36
2018-12-26T19:59:37.114Z,66.69
2018-12-26T20:02:05.630Z,67.15
2018-12-26T20:04:33.159Z,66.76
2018-12-26T20:07:00.668Z,66.31
2018-12-26T20:09:28.189Z,66.42
2018-12-26T20:11:56.536Z,65.87
2018-12-26T20:14:24.059Z,66.46
2018-12-26T20:16:51.498Z,66.08
2018-12-26T20:19:18.941Z,66.09
2018-12-26T20:21:46.461Z,65.93
2018-12-26T20:24:14.176Z,64.57
2018-12-26T20:26:42.146Z,64.39
2018-12-26T20:29:10.071Z,63.66
2018-12-26T20:31:37.636Z,63.57
2018-12-26T20:34:05.277Z,63.01
2018-12-26T20:36:32.827Z,62.61
2018-12-26T20:39:00.277Z,63.94
2018-12-26T20:41:27.750Z,63.46
2018-12-26T20:43:55.260Z,62.68
2018-12-26T20:46:22.993Z,64.14
2018-12-26T20:48:51.657Z,63.44
2018-12-26T20:51:19.099Z,63.77
2018-12-26T20:53:46.564Z,61.67
2018-12-26T20:56:13.991Z,61.31
2018-12-26T20:58:41.419Z,62.88
2018-12-26T21:01:08.880Z,62.15
2018-12-26T21:03:36.411Z,60.86
2018-12-26T21:06:03.973Z,60.71
2018-12-26T21:08:31.391Z,61.91
2018-12-26T21:10:58.839Z,60.72
2018-12-26T21:13:26.278Z,60.39
2018-12-26T21:15:54.048Z,60.63
2018-12-26T21:18:22.063Z,61.58
2018-12-26T21:20:49.655Z,61.38
2018-12-26T21:23:17.098Z,62.02
2018-12-26T21:25:46.727Z,62.43
2018-12-26T21:28:12.125Z,62.62
2018-12-26T21:30:39.645Z,62.57
2018-12-26T21:33:07.280Z,61.94
2018-12-26T21:35:35.933Z,61.92
2018-12-26T21:38:03.508Z,61.76
2018-12-26T21:40:30.983Z,61.19
2018-12-26T21:42:58.544Z,60.21
2018-12-26T21:45:26.170Z,60.60
2018-12-26T21:47:54.169Z,61.32
2018-12-26T21:50:21.647Z,61.37
2018-12-26T21:52:49.137Z,60.62
2018-12-26T21:55:16.619Z,61.21
2018-12-26T21:57:44.062Z,61.58
2018-12-26T22:00:11.509Z,61.13
2018-12-26T22:02:40.150Z,61.58
2018-12-26T22:05:07.794Z,61.52
2018-12-26T22:07:35.603Z,60.95
2018-12-26T22:10:03.050Z,61.28
2018-12-26T22:12:30.717Z,61.37
2018-12-26T22:14:58.206Z,61.63
2018-12-26T22:17:25.769Z,61.55
2018-12-26T22:19:53.642Z,61.59
2018-12-26T22:22:21.097Z,61.39
2018-12-26T22:24:48.563Z,59.95
2018-12-26T22:27:16.035Z,60.19
2018-12-26T22:29:43.490Z,62.09
2018-12-26T22:32:10.963Z,62.53
2018-12-26T22:34:38.429Z,62.10
2018-12-26T22:37:05.933Z,62.34
2018-12-26T22:39:33.500Z,60.84
2018-12-26T22:42:00.937Z,62.51
2018-12-26T22:44:28.401Z,61.41
2018-12-26T22:46:55.866Z,62.54
2018-12-26T22:49:23.370Z,62.36
2018-12-26T22:51:50.917Z,62.46
2018-12-26T22:54:18.405Z,62.61
2018-12-26T22:56:45.833Z,62.38
2018-12-26T22:59:14.673Z,62.78
2018-12-26T23:01:42.301Z,62.62
2018-12-26T23:04:09.831Z,61.88
2018-12-26T23:06:37.679Z,61.49
2018-12-26T23:09:05.497Z,62.37
2018-12-26T23:11:32.994Z,62.13
2018-12-26T23:14:00.829Z,61.72
2018-12-26T23:16:28.439Z,61.52
2018-12-26T23:18:58.066Z,61.35
2018-12-26T23:21:23.849Z,62.39
2018-12-26T23:23:51.551Z,63.87
2018-12-26T23:26:19.147Z,64.49
2018-12-26T23:28:46.704Z,62.37
2018-12-26T23:31:14.181Z,62.64
2018-12-26T23:33:42.495Z,62.82
2018-12-26T23:36:10.309Z,62.26
2018-12-26T23:38:37.985Z,61.94
2018-12-26T23:41:05.509Z,62.75
2018-12-26T23:43:33.012Z,62.80
2018-12-26T23:46:01.367Z,61.89
2018-12-26T23:48:28.834Z,61.91
2018-12-26T23:50:56.294Z,63.89
2018-12-26T23:53:23.791Z,63.47
2018-12-26T23:55:51.281Z,64.41
2018-12-26T23:58:18.767Z,65.17
